KMHT/MHT METAR and TAF weather

Enter ICAO airport designator
Station Type Date Time Source
KMHT METAR 2022/05/23 14:53 UTC NOAA

KMHT 231453Z 33013KT 10SM SCT180 BKN250 19/05 A3018 RMK AO2 SLP229 T01940050 51013


Station Type Date Time Source
KMHT Decoded METAR 2022/05/23 14:53 UTC NOAA

MANCHESTER AIRPORT, NH, United States (KMHT) 42-56N 071-26W 81M
May 23, 2022 - 10:53 AM EDT / 2022.05.23 1453 UTC
Wind: from the NNW (330 degrees) at 15 MPH (13 KT):0
Visibility: 10 mile(s):0
Sky conditions: mostly cloudy
Temperature: 66.9 F (19.4 C)
Dew Point: 41.0 F (5.0 C)
Relative Humidity: 38%
Pressure (altimeter): 30.18 in. Hg (1022 hPa)
Pressure tendency: 0.04 inches (1.3 hPa) higher than three hours ago
ob: KMHT 231453Z 33013KT 10SM SCT180 BKN250 19/05 A3018 RMK AO2 SLP229 T01940050 51013
cycle: 15

Station Type Date Time Source
KMHT TAF 2022/05/23 12:24 UTC NOAA

TAF
AMD KMHT 231223Z 2312/2412 33009G16KT P6SM FEW180 BKN230
FM231600 34010G18KT P6SM SCT050
FM240000 36004KT P6SM OVC250

Example: see airport list